SACO/COR METAR and TAF weather

Enter ICAO airport designator
Station Type Date Time Source
SACO METAR 2019/10/15 04:00 UTC NOAA

SACO 150400Z 22006KT 9999 SCT032 BKN060 09/04 Q1029 NOSIG


Station Type Date Time Source
SACO Decoded METAR 2019/10/15 04:00 UTC NOAA

Cordoba Aerodrome, Argentina (SACO) 31-19S 064-13W 474M
Oct 15, 2019 - 12:00 AM EDT / 2019.10.15 0400 UTC
Wind: from the SW (220 degrees) at 7 MPH (6 KT):0
Visibility: greater than 7 mile(s):0
Sky conditions: mostly cloudy
Temperature: 48 F (9 C)
Dew Point: 39 F (4 C)
Relative Humidity: 70%
Pressure (altimeter): 30.39 in. Hg (1029 hPa)
ob: SACO 150400Z 22006KT 9999 SCT032 BKN060 09/04 Q1029 NOSIG
cycle: 4

Station Type Date Time Source
SACO TAF 2019/10/15 00:00 UTC NOAA

TAF SACO 142300Z 1500/1524 21010KT 9999 BKN020 TX11/1519Z TN06/1511Z PROB40 1506/1509 18005KT 5000 -RA DZ BR BKN006 OVC010
BECMG 1512/1515 14005KT 9999 SCT015 BKN025
BECMG 1519/1522 11005KT 4000 -RA DZ BR SCT005 OVC010

Example: see airport list